Latest Weather Observations for Fitzroy Crossing

IDW60801

Issued at 8:35 pm WST Monday 20 October 2014 (issued every 30 minutes, with the page automatically refreshed every 10 minutes)

About weather observations | Map of weather stations | Latest weather observations for WA | Other Formats
Station Details ID: 003093 Name: FITZROY CROSSING AERO Lat: -18.18 Lon: 125.56 Height: 114.5 m
Data from the previous 72 hours. | See also: Recent months at Fitzroy Crossing
Date/Time
WST
Temp
°C
App
Temp
°C
Dew
Point
Rel
Hum
%
Delta-T
°C
Wind Press
QNH
hPa
Press
MSL
hPa
Rain
since 9 am
mm
Dir
 
Spd
km/h
Gust
km/h
Spd
kts
Gust
kts
20/08:30pm 30.2 27.7 4.0 19 13.5 W 6 7 3 4 1012.0 1011.2 0.0
20/08:00pm 31.5 28.8 2.7 16 14.6 W 6 7 3 4 1011.8 1011.0 0.0
20/07:30pm 32.7 29.8 1.7 14 15.6 W 6 7 3 4 1011.6 1010.8 0.0
20/07:00pm 33.4 30.6 2.3 14 15.9 WSW 6 7 3 4 1011.3 1010.5 0.0
20/06:30pm 34.8 31.3 1.2 12 17.0 SW 9 11 5 6 1010.9 1010.1 0.0
20/06:00pm 36.0 32.8 0.9 11 17.8 SW 7 9 4 5 1010.5 1009.7 0.0
20/05:30pm 37.8 34.6 1.0 10 18.9 S 7 7 4 4 1010.1 1009.3 0.0
20/05:00pm 39.0 36.3 0.4 9 19.8 WSW 4 13 2 7 1009.8 1009.0 0.0
20/04:30pm 39.6 37.0 0.9 9 20.0 S 4 9 2 5 1009.6 1008.8 0.0
20/04:00pm 40.1 37.0 1.2 9 20.3 W 7 17 4 9 1009.4 1008.6 0.0
20/03:30pm 40.0 35.3 1.1 9 20.2 S 15 19 8 10 1009.5 1008.7 0.0
20/03:00pm 40.1 35.1 1.2 9 20.3 SW 17 26 9 14 1009.6 1008.8 0.0
20/02:30pm 40.4 34.8 1.4 9 20.4 S 20 24 11 13 1009.8 1009.0 0.0
20/02:00pm 40.5 36.5 3.0 10 20.1 W 13 22 7 12 1010.2 1009.4 0.0
20/01:30pm 39.6 36.6 2.3 10 19.7 SSE 7 13 4 7 1010.5 1009.7 0.0
20/01:00pm 39.4 34.9 2.2 10 19.6 SSW 15 20 8 11 1011.1 1010.3 0.0
20/12:30pm 38.8 35.1 4.3 12 18.7 ESE 13 19 7 10 1011.5 1010.7 0.0
20/12:00pm 39.2 34.2 3.4 11 19.2 SSW 19 28 10 15 1012.2 1011.4 0.0
20/11:30am 38.5 35.1 4.1 12 18.6 SSW 11 20 6 11 1012.9 1012.1 0.0
20/11:00am 37.0 33.2 4.0 13 17.6 SSW 13 22 7 12 1013.6 1012.8 0.0
20/10:30am 36.5 31.5 3.7 13 17.4 S 19 26 10 14 1014.2 1013.3 0.0
20/10:00am 35.5 30.4 3.9 14 16.7 SSW 20 28 11 15 1014.8 1013.9 0.0
20/09:30am 34.3 30.9 5.8 17 15.5 S 13 28 7 15 1015.2 1014.3 0.0
20/09:00am 34.0 31.1 6.3 18 15.1 S 11 20 6 11 1015.5 1014.6 0.0
20/08:30am 32.9 30.8 8.4 22 13.8 SSW 9 17 5 9 1015.6 1014.7 0.0
20/08:00am 31.7 28.9 8.7 24 12.9 WSW 13 19 7 10 1015.7 1014.8 0.0
20/07:30am 30.9 28.4 9.7 27 12.0 WSW 13 19 7 10 1015.5 1014.6 0.0
20/07:00am 29.7 27.5 10.8 31 10.9 W 13 17 7 9 1015.2 1014.3 0.0
20/06:30am 27.6 27.1 14.9 45 7.7 W 11 15 6 8 1014.7 1013.8 0.0
20/06:00am 24.7 24.5 13.6 50 6.5 W 7 11 4 6 1014.5 1013.6 0.0
20/05:30am 23.4 22.7 11.5 47 6.7 W 6 9 3 5 1014.1 1013.2 0.0
20/05:00am 23.6 22.5 10.6 44 7.2 WNW 7 11 4 6 1013.5 1012.7 0.0
20/04:30am 24.8 23.8 10.3 40 8.1 NW 6 9 3 5 1013.1 1012.3 0.0
20/04:00am 24.4 22.7 9.9 40 8.0 WNW 9 13 5 7 1012.7 1011.9 0.0
20/03:30am 23.9 22.0 9.1 39 8.0 WNW 9 13 5 7 1012.5 1011.7 0.0
20/03:00am 24.7 22.6 9.8 39 8.2 NNW 11 11 6 6 1012.4 1011.6 0.0
20/02:30am 25.5 23.0 9.7 37 8.7 WNW 13 13 7 7 1012.0 1011.2 0.0
20/02:00am 26.2 23.6 9.5 35 9.2 N 13 15 7 8 1012.1 1011.3 0.0
20/01:30am 27.2 24.3 9.5 33 9.8 N 15 20 8 11 1012.1 1011.3 0.0
20/01:00am 25.3 21.3 5.0 27 10.3 N 15 22 8 12 1011.9 1011.1 0.0
20/12:30am 24.2 21.9 2.9 25 10.3 N 4 13 2 7 1011.6 1010.8 0.0
20/12:00am 24.7 21.3 1.6 22 11.0 NNW 9 15 5 8 1011.3 1010.5 0.0
 
Date/Time
WST
Temp
°C
App
Temp
°C
Dew
Point
Rel
Hum
%
Delta-T
°C
Wind Press
QNH
hPa
Press
MSL
hPa
Rain
since 9 am
mm
Dir
 
Spd
km/h
Gust
km/h
Spd
kts
Gust
kts
19/11:30pm 25.0 21.3 2.4 23 10.9 NW 11 13 6 7 1011.3 1010.5 0.0
19/11:00pm 25.8 22.8 1.8 21 11.6 WNW 7 9 4 5 1011.5 1010.7 0.0
19/10:30pm 25.4 21.9 1.5 21 11.4 NNW 9 11 5 6 1011.7 1010.9 0.0
19/10:00pm 27.1 24.1 0.8 18 12.5 WSW 6 7 3 4 1011.8 1011.0 0.0
19/09:30pm 30.3 26.6 -0.1 14 14.6 SW 9 11 5 6 1011.9 1011.1 0.0
19/09:00pm 31.0 26.8 -0.6 13 15.1 SSW 11 13 6 7 1011.7 1010.9 0.0
19/08:30pm 31.1 27.0 -0.5 13 15.1 SSW 11 13 6 7 1011.6 1010.8 0.0
19/08:00pm 30.6 26.9 0.1 14 14.7 SW 9 11 5 6 1011.4 1010.6 0.0
19/07:30pm 30.8 27.8 2.1 16 14.4 SSW 7 9 4 5 1011.2 1010.4 0.0
19/07:00pm 32.9 29.2 -0.2 12 16.2 S 9 9 5 5 1011.0 1010.2 0.0
19/06:30pm 33.9 31.1 -0.7 11 16.9 SSE 4 7 2 4 1010.7 1009.9 0.0
19/06:00pm 34.8 32.3 -1.3 10 17.5 SSE 2 7 1 4 1010.4 1009.6 0.0
19/05:30pm 36.6 33.7 -1.4 9 18.6 SE 4 6 2 3 1010.1 1009.3 0.0
19/05:00pm 38.0 35.4 -1.9 8 19.6 ENE 2 9 1 5 1009.9 1009.1 0.0
19/04:30pm 38.5 35.2 -1.6 8 19.8 E 6 13 3 7 1009.6 1008.8 0.0
19/04:00pm 38.6 35.1 -1.5 8 19.9 NNE 7 13 4 7 1009.6 1008.8 0.0
19/03:30pm 39.1 34.9 -1.1 8 20.1 NE 11 19 6 10 1009.6 1008.8 0.0
19/03:00pm 39.0 35.7 -1.2 8 20.1 ENE 6 11 3 6 1009.6 1008.8 0.0
19/02:30pm 39.3 34.9 -2.8 7 20.5 NNE 11 19 6 10 1009.7 1008.9 0.0
19/02:00pm 38.9 34.0 -3.1 7 20.4 NNE 13 22 7 12 1009.9 1009.1 0.0
19/01:30pm 38.3 33.6 -1.7 8 19.7 N 13 20 7 11 1010.4 1009.6 0.0
19/01:00pm 38.5 33.4 -1.6 8 19.9 N 15 26 8 14 1010.7 1009.9 0.0
19/12:30pm 37.9 34.6 2.4 11 18.6 N 9 19 5 10 1011.2 1010.4 0.0
19/12:00pm 37.9 33.2 1.0 10 18.9 N 15 22 8 12 1011.7 1010.9 0.0
19/11:30am 38.0 35.0 5.9 14 17.8 S 11 26 6 14 1012.3 1011.5 0.0
19/11:00am 36.4 34.1 4.6 14 17.1 WNW 6 11 3 6 1012.6 1011.8 0.0
19/10:30am 35.7 33.9 9.3 20 15.2 SW 9 13 5 7 1012.9 1012.1 0.0
19/10:00am 34.8 33.9 10.6 23 14.2 SE 6 13 3 7 1013.5 1012.7 0.0
19/09:30am 33.6 31.2 11.4 25 13.1 SSW 15 22 8 12 1014.1 1013.2 0.0
19/09:00am 32.6 29.9 11.7 28 12.3 SSW 17 26 9 14 1014.3 1013.4 0.0
19/08:30am 31.3 28.8 12.2 31 11.3 SW 17 24 9 13 1014.5 1013.6 0.0
19/08:00am 30.9 29.2 12.3 32 11.0 SW 13 22 7 12 1014.6 1013.7 0.0
19/07:30am 29.6 28.0 11.6 33 10.5 W 11 15 6 8 1014.4 1013.5 0.0
19/07:00am 28.4 25.8 10.6 33 10.1 W 15 19 8 10 1014.2 1013.3 0.0
19/06:30am 26.8 24.4 10.1 35 9.4 WNW 13 17 7 9 1013.9 1013.0 0.0
19/06:00am 24.5 22.5 8.5 36 8.6 WNW 9 13 5 7 1013.6 1012.8 0.0
19/05:30am 21.1 18.8 7.3 41 7.1 WNW 9 13 5 7 1013.2 1012.4 0.0
19/05:00am 20.6 16.7 5.4 37 7.5 N 15 19 8 10 1012.9 1012.1 0.0
19/04:30am 21.6 18.5 3.8 31 8.6 WNW 9 13 5 7 1012.3 1011.5 0.0
19/04:00am 21.9 18.2 2.1 27 9.3 WNW 11 11 6 6 1012.0 1011.2 0.0
19/03:30am 22.1 20.3 3.7 30 8.9 NNW 2 9 1 5 1011.9 1011.1 0.0
19/03:00am 21.9 18.3 0.4 24 9.8 NNE 9 11 5 6 1011.9 1011.1 0.0
19/02:30am 24.3 20.5 1.9 23 10.7 N 11 15 6 8 1011.5 1010.7 0.0
19/02:00am 24.3 20.7 0.6 21 11.0 N 9 15 5 8 1011.4 1010.6 0.0
19/01:30am 23.7 21.7 0.1 21 10.8 CALM 0 0 0 0 1011.4 1010.6 0.0
19/01:00am 23.7 20.1 -2.0 18 11.3 W 7 15 4 8 1011.5 1010.7 0.0
19/12:30am 22.7 19.6 -0.1 22 10.3 N 6 7 3 4 1011.2 1010.4 0.0
19/12:00am 22.2 19.2 0.7 24 9.9 N 6 7 3 4 1011.4 1010.6 0.0
 
Date/Time
WST
Temp
°C
App
Temp
°C
Dew
Point
Rel
Hum
%
Delta-T
°C
Wind Press
QNH
hPa
Press
MSL
hPa
Rain
since 9 am
mm
Dir
 
Spd
km/h
Gust
km/h
Spd
kts
Gust
kts
18/11:30pm 25.1 21.6 -2.5 16 12.2 NE 6 13 3 7 1011.6 1010.8 0.0
18/11:00pm 25.2 22.8 -3.2 15 12.4 CALM 0 0 0 0 1011.7 1010.9 0.0
18/10:30pm 25.8 23.6 -1.9 16 12.4 CALM 0 0 0 0 1011.8 1011.0 0.0
18/10:00pm 25.5 23.2 -2.1 16 12.3 CALM 0 0 0 0 1012.1 1011.3 0.0
18/09:30pm 27.8 23.6 -4.2 12 14.0 ESE 9 11 5 6 1012.0 1011.2 0.0
18/09:00pm 28.6 24.1 -3.6 12 14.4 ESE 11 13 6 7 1011.9 1011.1 0.0
18/08:30pm 29.0 24.8 -1.2 14 14.1 ESE 11 13 6 7 1011.8 1011.0 0.0
18/08:00pm 29.5 25.6 1.1 16 13.9 E 11 11 6 6 1011.6 1010.8 0.0
18/07:30pm 29.8 26.1 2.1 17 13.8 E 11 11 6 6 1011.4 1010.6 0.0
18/07:00pm 31.3 29.0 0.6 14 15.0 E 2 7 1 4 1011.1 1010.3 0.0
18/06:30pm 32.9 30.7 -1.4 11 16.4 CALM 0 0 0 0 1010.8 1010.0 0.0
18/06:00pm 33.5 31.4 -1.0 11 16.7 CALM 0 0 0 0 1010.6 1009.8 0.0
18/05:30pm 35.9 33.5 -3.5 8 18.6 CALM 0 0 0 0 1010.4 1009.6 0.0
18/05:00pm 37.1 34.0 -2.6 8 19.2 ESE 4 7 2 4 1010.0 1009.2 0.0
18/04:30pm 37.4 33.2 -4.2 7 19.6 NE 9 22 5 12 1009.7 1008.9 0.0
18/04:00pm 38.2 33.7 -3.6 7 20.0 ENE 11 17 6 9 1009.6 1008.8 0.0
18/03:30pm 38.2 32.9 -3.6 7 20.0 NNE 15 24 8 13 1009.5 1008.7 0.0
18/03:00pm 38.0 33.3 -1.9 8 19.6 NNE 13 22 7 12 1009.7 1008.9 0.0
18/02:30pm 38.6 34.3 -1.5 8 19.9 N 11 20 6 11 1009.9 1009.1 0.0
18/02:00pm 38.5 35.0 -1.6 8 19.9 SE 7 13 4 7 1010.2 1009.4 0.0
18/01:30pm 38.2 33.9 -1.8 8 19.7 E 11 22 6 12 1010.5 1009.7 0.0
18/01:00pm 38.5 33.8 -1.6 8 19.9 E 13 22 7 12 1010.9 1010.1 0.0
18/12:30pm 37.3 32.9 -2.4 8 19.2 NE 11 20 6 11 1011.5 1010.7 0.0
18/12:00pm 37.2 33.4 -0.9 9 18.9 NE 9 20 5 11 1012.1 1011.3 0.0
18/11:30am 36.4 32.3 -0.1 10 18.2 N 11 32 6 17 1012.6 1011.8 0.0
18/11:00am 36.5 31.3 0.0 10 18.3 N 17 26 9 14 1013.1 1012.3 0.0
18/10:30am 35.8 32.2 3.1 13 17.1 W 11 22 6 12 1013.5 1012.7 0.0
18/10:00am 35.5 31.1 2.9 13 17.0 NNE 15 22 8 12 1014.2 1013.3 0.0
18/09:30am 35.1 33.1 6.4 17 15.8 N 6 15 3 8 1014.5 1013.6 0.0
18/09:00am 34.0 32.4 8.6 21 14.4 W 7 17 4 9 1014.8 1013.9 0.0
18/08:30am 32.9 32.4 12.0 28 12.4 NNW 6 9 3 5 1014.9 1014.0 0.0
18/08:00am 32.0 30.7 11.2 28 12.1 W 9 13 5 7 1015.0 1014.1 0.0
18/07:30am 30.9 30.2 13.2 34 10.6 NW 9 13 5 7 1015.0 1014.1 0.0
18/07:00am 27.6 28.7 13.5 41 8.4 CALM 0 0 0 0 1014.9 1014.0 0.0
18/06:30am 25.0 26.1 13.5 48 6.8 CALM 0 0 0 0 1014.5 1013.6 0.0
18/06:00am 23.0 22.3 12.0 50 6.2 ENE 7 9 4 5 1014.4 1013.5 0.0
18/05:30am 21.8 20.3 13.2 58 5.0 N 13 15 7 8 1013.7 1012.9 0.0
18/05:00am 20.8 19.3 12.0 57 4.9 NNW 11 13 6 7 1013.4 1012.6 0.0
18/04:30am 21.2 19.8 12.1 56 5.1 NNW 11 13 6 7 1013.0 1012.2 0.0
18/04:00am 21.5 19.7 12.1 55 5.3 NNW 13 17 7 9 1012.8 1012.0 0.0
18/03:30am 21.3 19.7 11.6 54 5.4 NW 11 13 6 7 1012.7 1011.9 0.0
18/03:00am 22.8 21.3 11.8 50 6.2 N 11 15 6 8 1012.5 1011.7 0.0
18/02:30am 22.0 20.4 8.9 43 7.0 NNE 7 11 4 6 1012.5 1011.7 0.0
18/02:00am 24.0 22.0 8.8 38 8.2 NNW 9 11 5 6 1012.3 1011.5 0.0
18/01:30am 23.9 21.9 7.1 34 8.8 NNW 7 11 4 6 1012.3 1011.5 0.0
18/01:00am 24.6 22.5 3.8 26 10.3 N 4 7 2 4 1012.5 1011.7 0.0
18/12:30am 23.8 20.2 0.8 22 10.7 WNW 9 13 5 7 1012.6 1011.8 0.0
18/12:00am 25.4 20.6 -2.2 16 12.3 NNW 13 22 7 12 1012.6 1011.8 0.0
 
Date/Time
WST
Temp
°C
App
Temp
°C
Dew
Point
Rel
Hum
%
Delta-T
°C
Wind Press
QNH
hPa
Press
MSL
hPa
Rain
since 9 am
mm
Dir
 
Spd
km/h
Gust
km/h
Spd
kts
Gust
kts
17/11:30pm 22.1 18.4 -4.1 17 10.9 NNW 6 7 3 4 1012.1 1011.3 0.0
17/11:00pm 23.4 20.9 -3.8 16 11.6 CALM 0 0 0 0 1012.3 1011.5 0.0
17/10:30pm 24.0 21.0 -5.1 14 12.1 ESE 2 6 1 3 1012.4 1011.6 0.0
17/10:00pm 26.5 22.1 -10.4 8 14.3 ESE 7 9 4 5 1012.4 1011.6 0.0
17/09:30pm 27.5 22.4 -9.7 8 14.7 SE 11 11 6 6 1012.3 1011.5 0.0
17/09:00pm 27.7 22.6 -9.5 8 14.8 ESE 11 11 6 6 1012.3 1011.5 0.0

Other Formats:

Comma delimited format used in spreadsheet applications
http://www.bom.gov.au/fwo/IDW60801/IDW60801.94206.axf

JavaScript Object Notation format (JSON) in row-major order
http://www.bom.gov.au/fwo/IDW60801/IDW60801.94206.json